createdAt,value
2022-10-14T00:01:12.596Z,100583.56
2022-10-14T00:03:40.043Z,100578.63
2022-10-14T00:06:15.672Z,100572.25
2022-10-14T00:08:43.467Z,100575.41
2022-10-14T00:11:13.898Z,100563.09
2022-10-14T00:13:40.526Z,100568.34
2022-10-14T00:16:14.752Z,100572.16
2022-10-14T00:18:41.068Z,100567.03
2022-10-14T00:21:07.426Z,100575.72
2022-10-14T00:23:33.750Z,100568.63
2022-10-14T00:26:00.102Z,100571.88
2022-10-14T00:28:26.512Z,100572.66
2022-10-14T00:30:57.831Z,100561.78
2022-10-14T00:33:24.841Z,100564.69
2022-10-14T00:36:03.732Z,100570.28
2022-10-14T00:38:30.065Z,100569.84
2022-10-14T00:40:57.142Z,100569.03
2022-10-14T00:43:26.332Z,100566.94
2022-10-14T00:45:52.731Z,100566.44
2022-10-14T00:48:22.155Z,100562.59
2022-10-14T00:50:52.923Z,100561.59
2022-10-14T00:53:19.711Z,100560.00
2022-10-14T00:55:46.352Z,100565.53
2022-10-14T00:58:12.711Z,100559.59
2022-10-14T01:00:39.499Z,100562.00
2022-10-14T01:03:20.667Z,100556.97
2022-10-14T01:06:01.975Z,100562.91
2022-10-14T01:08:34.934Z,100559.06
2022-10-14T01:11:15.485Z,100565.84
2022-10-14T01:13:56.519Z,100556.47
2022-10-14T01:16:34.917Z,100556.97
2022-10-14T01:19:13.454Z,100562.22
2022-10-14T01:21:48.352Z,100558.38
2022-10-14T01:24:29.909Z,100553.13
2022-10-14T01:27:18.125Z,100546.31
2022-10-14T01:29:59.645Z,100544.06
2022-10-14T01:32:30.187Z,100550.72
2022-10-14T01:35:10.567Z,100547.91
2022-10-14T01:37:42.989Z,100554.16
2022-10-14T01:40:17.746Z,100557.19
2022-10-14T01:42:45.986Z,100546.31
2022-10-14T01:45:17.700Z,100547.50
2022-10-14T01:47:47.827Z,100547.41
2022-10-14T01:50:22.432Z,100547.69
2022-10-14T01:52:55.642Z,100546.09
2022-10-14T01:55:26.418Z,100542.06
2022-10-14T01:57:56.013Z,100539.25
2022-10-14T02:00:22.557Z,100535.44
2022-10-14T02:02:48.918Z,100539.66
2022-10-14T02:05:28.263Z,100537.03
2022-10-14T02:08:11.622Z,100536.00
2022-10-14T02:11:01.750Z,100530.97
2022-10-14T02:13:49.896Z,100527.56
2022-10-14T02:16:16.166Z,100523.75
2022-10-14T02:19:00.125Z,100524.41
2022-10-14T02:21:48.135Z,100523.91
2022-10-14T02:24:26.639Z,100522.31
2022-10-14T02:26:56.593Z,100523.31
2022-10-14T02:29:24.510Z,100518.47
2022-10-14T02:31:51.639Z,100518.19
2022-10-14T02:34:21.737Z,100520.69
2022-10-14T02:36:49.335Z,100519.69
2022-10-14T02:39:21.159Z,100517.66
2022-10-14T02:41:47.638Z,100513.94
2022-10-14T02:44:14.005Z,100518.28
2022-10-14T02:46:40.295Z,100510.63
2022-10-14T02:49:06.809Z,100511.72
2022-10-14T02:51:33.552Z,100519.28
2022-10-14T02:53:59.929Z,100516.88
2022-10-14T02:56:26.273Z,100512.22
2022-10-14T02:58:52.626Z,100513.44
2022-10-14T03:01:19.010Z,100508.00
2022-10-14T03:03:45.402Z,100505.28
2022-10-14T03:06:11.761Z,100508.72
2022-10-14T03:08:38.263Z,100500.41
2022-10-14T03:11:04.723Z,100508.22
2022-10-14T03:13:31.049Z,100503.88
2022-10-14T03:15:57.361Z,100500.53
2022-10-14T03:18:23.700Z,100497.31
2022-10-14T03:20:50.051Z,100492.84
2022-10-14T03:23:16.403Z,100497.50
2022-10-14T03:25:45.647Z,100494.78
2022-10-14T03:28:12.992Z,100505.19
2022-10-14T03:30:39.899Z,100497.50
2022-10-14T03:33:06.395Z,100492.56
2022-10-14T03:35:32.853Z,100502.34
2022-10-14T03:37:59.168Z,100498.81
2022-10-14T03:40:25.475Z,100495.28
2022-10-14T03:42:51.788Z,100492.56
2022-10-14T03:45:18.111Z,100494.69
2022-10-14T03:47:44.425Z,100489.44
2022-10-14T03:50:10.752Z,100486.50
2022-10-14T03:52:37.073Z,100486.81
2022-10-14T03:55:03.654Z,100486.50
2022-10-14T03:57:30.039Z,100487.63
2022-10-14T03:59:56.326Z,100485.53
2022-10-14T04:02:23.079Z,100484.50
2022-10-14T04:04:49.676Z,100483.28
2022-10-14T04:07:15.984Z,100480.09
2022-10-14T04:09:42.307Z,100484.00
2022-10-14T04:12:09.459Z,100483.53
2022-10-14T04:14:35.829Z,100487.34
2022-10-14T04:17:02.123Z,100485.53
2022-10-14T04:19:28.477Z,100477.88
2022-10-14T04:21:54.769Z,100478.97
2022-10-14T04:24:21.150Z,100488.44
2022-10-14T04:26:50.427Z,100484.63
2022-10-14T04:29:16.737Z,100484.13
2022-10-14T04:31:43.092Z,100487.66
2022-10-14T04:34:10.884Z,100484.81
2022-10-14T04:36:37.382Z,100477.16
2022-10-14T04:39:03.720Z,100478.38
2022-10-14T04:41:30.054Z,100483.19
2022-10-14T04:43:56.363Z,100475.34
2022-10-14T04:46:22.686Z,100477.75
2022-10-14T04:48:49.084Z,100479.56
2022-10-14T04:51:15.632Z,100481.19
2022-10-14T04:53:42.231Z,100473.63
2022-10-14T04:56:08.578Z,100469.19
2022-10-14T04:58:34.888Z,100473.63
2022-10-14T05:01:01.226Z,100469.50
2022-10-14T05:03:27.523Z,100464.38
2022-10-14T05:05:53.851Z,100473.63
2022-10-14T05:08:20.174Z,100467.69
2022-10-14T05:10:48.464Z,100465.56
2022-10-14T05:13:15.141Z,100463.25
2022-10-14T05:15:41.455Z,100461.03
2022-10-14T05:18:11.599Z,100451.75
2022-10-14T05:20:37.998Z,100464.25
2022-10-14T05:23:05.351Z,100463.16
2022-10-14T05:25:31.800Z,100461.84
2022-10-14T05:27:58.106Z,100463.75
2022-10-14T05:30:24.484Z,100461.03
2022-10-14T05:32:50.781Z,100463.06
2022-10-14T05:35:29.052Z,100465.66
2022-10-14T05:38:04.553Z,100461.16
2022-10-14T05:40:31.058Z,100464.38
2022-10-14T05:42:57.351Z,100468.25
2022-10-14T05:45:23.665Z,100465.97
2022-10-14T05:47:49.966Z,100470.91
2022-10-14T05:50:16.306Z,100460.94
2022-10-14T05:52:42.621Z,100469.41
2022-10-14T05:55:09.438Z,100471.41
2022-10-14T05:57:36.028Z,100468.38
2022-10-14T06:00:05.102Z,100464.38
2022-10-14T06:02:31.545Z,100464.84
2022-10-14T06:04:57.847Z,100464.94
2022-10-14T06:07:24.224Z,100454.97
2022-10-14T06:09:50.523Z,100463.25
2022-10-14T06:12:16.852Z,100457.59
2022-10-14T06:14:43.171Z,100456.59
2022-10-14T06:17:09.599Z,100457.59
2022-10-14T06:19:35.948Z,100453.34
2022-10-14T06:22:02.248Z,100457.19
2022-10-14T06:24:28.563Z,100447.44
2022-10-14T06:26:54.854Z,100457.31
2022-10-14T06:29:21.153Z,100457.19
2022-10-14T06:31:47.479Z,100451.84
2022-10-14T06:34:13.775Z,100447.19
2022-10-14T06:36:40.097Z,100447.06
2022-10-14T06:39:06.430Z,100447.38
2022-10-14T06:41:32.732Z,100443.41
2022-10-14T06:43:59.072Z,100446.25
2022-10-14T06:46:25.471Z,100443.66
2022-10-14T06:48:51.844Z,100442.25
2022-10-14T06:51:18.169Z,100436.59
2022-10-14T06:53:44.555Z,100438.22
2022-10-14T06:56:10.898Z,100423.66
2022-10-14T06:58:37.381Z,100427.06
2022-10-14T07:01:07.971Z,100426.34
2022-10-14T07:03:35.964Z,100427.81
2022-10-14T07:06:06.536Z,100431.03
2022-10-14T07:08:32.919Z,100439.72
2022-10-14T07:10:59.227Z,100434.28
2022-10-14T07:13:25.606Z,100430.66
2022-10-14T07:15:52.086Z,100429.69
2022-10-14T07:18:19.007Z,100435.19
2022-10-14T07:20:45.322Z,100434.38
2022-10-14T07:23:11.845Z,100432.41
2022-10-14T07:25:38.200Z,100431.03
2022-10-14T07:28:05.395Z,100438.31
2022-10-14T07:30:32.150Z,100442.19
2022-10-14T07:33:01.883Z,100439.28
2022-10-14T07:35:28.624Z,100431.22
2022-10-14T07:37:57.647Z,100436.22
2022-10-14T07:40:24.984Z,100436.28
2022-10-14T07:42:51.329Z,100433.31
2022-10-14T07:45:17.675Z,100432.91
2022-10-14T07:47:46.794Z,100437.09
2022-10-14T07:50:13.334Z,100423.13
2022-10-14T07:52:39.687Z,100420.09
2022-10-14T07:55:07.506Z,100421.53
2022-10-14T07:57:33.862Z,100408.41
2022-10-14T08:00:00.287Z,100409.69
2022-10-14T08:02:26.699Z,100410.16
2022-10-14T08:04:54.298Z,100405.66
2022-10-14T08:07:21.015Z,100406.38
2022-10-14T08:09:47.568Z,100397.31
2022-10-14T08:12:14.176Z,100396.66
2022-10-14T08:14:40.577Z,100402.13
2022-10-14T08:17:06.883Z,100395.66
2022-10-14T08:19:33.378Z,100391.81
2022-10-14T08:21:59.687Z,100396.31
2022-10-14T08:24:26.089Z,100399.81
2022-10-14T08:26:54.523Z,100393.03
2022-10-14T08:29:21.471Z,100398.78
2022-10-14T08:31:48.382Z,100402.94
2022-10-14T08:34:14.884Z,100408.31
2022-10-14T08:36:41.425Z,100398.06
2022-10-14T08:42:03.490Z,100395.84
2022-10-14T08:44:41.969Z,100402.13
2022-10-14T08:47:15.013Z,100402.91
2022-10-14T08:49:50.129Z,100404.50
2022-10-14T08:52:37.382Z,100405.31
2022-10-14T08:55:26.181Z,100394.22
2022-10-14T08:57:59.626Z,100394.84
2022-10-14T09:00:28.182Z,100400.09
2022-10-14T09:02:54.609Z,100391.09
2022-10-14T09:05:24.643Z,100391.78
2022-10-14T09:07:53.841Z,100392.31
2022-10-14T09:10:36.769Z,100386.13
2022-10-14T09:13:21.527Z,100385.13
2022-10-14T09:15:54.370Z,100378.88
2022-10-14T09:18:26.891Z,100386.28
2022-10-14T09:20:55.102Z,100378.78
2022-10-14T09:23:24.067Z,100378.75
2022-10-14T09:26:05.843Z,100372.41
2022-10-14T09:28:39.262Z,100359.47
2022-10-14T09:31:08.040Z,100363.47
2022-10-14T09:33:38.302Z,100355.44
2022-10-14T09:36:27.561Z,100357.72
2022-10-14T09:38:54.838Z,100347.22
2022-10-14T09:41:27.654Z,100348.78
2022-10-14T09:44:30.865Z,100342.75
2022-10-14T09:46:59.877Z,100354.94
2022-10-14T09:49:34.491Z,100334.59
2022-10-14T09:52:00.952Z,100339.84
2022-10-14T09:54:30.522Z,100336.34
2022-10-14T09:57:03.953Z,100339.16
2022-10-14T09:59:31.692Z,100330.06
2022-10-14T10:02:01.137Z,100326.63
2022-10-14T10:04:33.474Z,100327.38
2022-10-14T10:07:03.385Z,100317.50
2022-10-14T10:09:29.717Z,100316.84
2022-10-14T10:11:56.019Z,100320.53
2022-10-14T10:14:23.864Z,100321.03
2022-10-14T10:17:12.099Z,100312.25
2022-10-14T10:19:41.352Z,100314.44
2022-10-14T10:25:12.124Z,100308.31
2022-10-14T10:27:44.059Z,100302.22
2022-10-14T10:30:28.808Z,100308.97
2022-10-14T10:33:20.012Z,100307.41
2022-10-14T10:35:57.035Z,100304.84
2022-10-14T10:38:25.518Z,100293.50
2022-10-14T10:41:18.638Z,100293.31
2022-10-14T10:44:03.460Z,100295.25
2022-10-14T10:46:32.809Z,100294.56
2022-10-14T10:49:21.502Z,100283.63
2022-10-14T10:51:55.149Z,100278.22
2022-10-14T10:54:41.567Z,100270.53
2022-10-14T10:57:26.697Z,100276.13
2022-10-14T11:00:00.039Z,100266.47
2022-10-14T11:02:45.884Z,100260.69
2022-10-14T11:05:17.136Z,100248.31
2022-10-14T11:07:55.417Z,100253.50
2022-10-14T11:10:37.770Z,100253.09
2022-10-14T11:13:06.286Z,100257.19
2022-10-14T11:15:50.198Z,100255.13
2022-10-14T11:18:25.475Z,100249.25
2022-10-14T11:21:12.104Z,100245.69
2022-10-14T11:23:38.363Z,100244.31
2022-10-14T11:26:32.211Z,100253.66
2022-10-14T11:29:19.120Z,100234.81
2022-10-14T11:32:01.191Z,100236.28
2022-10-14T11:34:57.138Z,100231.13
2022-10-14T11:37:40.359Z,100230.72
2022-10-14T11:40:20.889Z,100230.34
2022-10-14T11:43:02.146Z,100215.97
2022-10-14T11:45:43.648Z,100216.28
2022-10-14T11:48:34.713Z,100211.47
2022-10-14T11:51:36.873Z,100211.75
2022-10-14T11:54:44.812Z,100201.09
2022-10-14T11:57:14.867Z,100206.06
2022-10-14T11:59:47.918Z,100206.72
2022-10-14T12:02:31.984Z,100194.63
2022-10-14T12:05:21.227Z,100199.69
2022-10-14T12:08:02.576Z,100194.97
2022-10-14T12:10:44.306Z,100188.72
2022-10-14T12:13:22.190Z,100186.38
2022-10-14T12:15:52.236Z,100179.91
2022-10-14T12:18:18.759Z,100176.44
2022-10-14T12:21:00.778Z,100172.38
2022-10-14T12:23:37.685Z,100171.38
2022-10-14T12:26:13.068Z,100161.53
2022-10-14T12:28:40.536Z,100156.72
2022-10-14T12:31:31.812Z,100156.31
2022-10-14T12:34:13.334Z,100146.88
2022-10-14T12:36:42.262Z,100138.94
2022-10-14T12:39:17.647Z,100139.84
2022-10-14T12:41:49.950Z,100133.16
2022-10-14T12:44:20.693Z,100145.00
2022-10-14T12:46:49.392Z,100133.72
2022-10-14T12:49:27.140Z,100131.88
2022-10-14T12:52:00.503Z,100133.69
2022-10-14T12:54:28.692Z,100125.59
2022-10-14T12:56:57.231Z,100121.94
2022-10-14T12:59:36.318Z,100121.38
2022-10-14T13:02:21.534Z,100104.47
2022-10-14T13:04:54.652Z,100107.63
2022-10-14T13:07:42.554Z,100103.00
2022-10-14T13:10:39.391Z,100100.72
2022-10-14T13:13:37.708Z,100100.66
2022-10-14T13:16:25.869Z,100104.25
2022-10-14T13:19:33.118Z,100096.84
2022-10-14T13:22:04.336Z,100100.38
2022-10-14T13:24:37.925Z,100093.44
2022-10-14T13:27:21.205Z,100088.47
2022-10-14T13:29:58.601Z,100083.50
2022-10-14T13:32:56.611Z,100078.97
2022-10-14T13:35:46.924Z,100075.00
2022-10-14T13:38:18.721Z,100075.25
2022-10-14T13:40:51.038Z,100084.72
2022-10-14T13:43:32.676Z,100077.50
2022-10-14T13:46:04.485Z,100065.84
2022-10-14T13:48:34.525Z,100064.94
2022-10-14T13:51:24.554Z,100059.84
2022-10-14T13:54:23.000Z,100057.78
2022-10-14T13:57:38.256Z,100054.06
2022-10-14T14:02:38.279Z,100047.88
2022-10-14T14:05:04.970Z,100042.97
2022-10-14T14:08:08.420Z,100033.34
2022-10-14T14:10:24.982Z,100035.16
2022-10-14T14:12:52.487Z,100026.59
2022-10-14T14:15:25.057Z,100017.91
2022-10-14T14:17:52.270Z,100022.06
2022-10-14T14:20:22.147Z,100022.53
2022-10-14T14:22:48.568Z,100022.00
2022-10-14T14:25:33.534Z,100005.69
2022-10-14T14:28:02.513Z,100007.41
2022-10-14T14:30:32.680Z,100000.06
2022-10-14T14:33:02.307Z,100005.78
2022-10-14T14:35:29.055Z,99999.22
2022-10-14T14:37:56.636Z,99993.09
2022-10-14T14:40:26.409Z,99986.72
2022-10-14T14:42:56.057Z,99991.03
2022-10-14T14:45:24.994Z,99990.41
2022-10-14T14:48:04.103Z,99983.94
2022-10-14T14:50:37.639Z,99992.19
2022-10-14T14:53:12.064Z,99985.31
2022-10-14T14:55:43.927Z,99985.31
2022-10-14T14:58:19.720Z,99980.22
2022-10-14T15:00:46.517Z,99989.69
2022-10-14T15:03:13.091Z,99982.63
2022-10-14T15:05:39.428Z,99982.50
2022-10-14T15:08:19.116Z,99984.22
2022-10-14T15:10:49.154Z,99980.94
2022-10-14T15:13:40.138Z,99982.72
2022-10-14T15:16:07.888Z,99982.72
2022-10-14T15:18:34.477Z,99971.75
2022-10-14T15:21:18.373Z,99978.50
2022-10-14T15:23:58.332Z,99979.97
2022-10-14T15:26:27.635Z,99980.25
2022-10-14T15:29:12.548Z,99985.94
2022-10-14T15:31:40.371Z,99986.03
2022-10-14T15:34:16.979Z,99984.47
2022-10-14T15:36:43.343Z,99987.31
2022-10-14T15:39:12.563Z,99986.69
2022-10-14T15:41:38.994Z,99981.81
2022-10-14T15:44:05.335Z,99991.28
2022-10-14T15:46:31.719Z,99983.75
2022-10-14T15:49:02.239Z,99991.59
2022-10-14T15:51:30.094Z,99984.38
2022-10-14T15:53:57.286Z,99990.03
2022-10-14T15:56:23.718Z,99979.75
2022-10-14T15:58:50.203Z,99979.75
2022-10-14T16:01:19.656Z,99983.19
2022-10-14T16:03:47.617Z,99979.47
2022-10-14T16:06:13.937Z,99972.88
2022-10-14T16:08:40.350Z,99970.47
2022-10-14T16:11:19.576Z,99974.13
2022-10-14T16:13:45.855Z,99967.03
2022-10-14T16:16:12.916Z,99967.34
2022-10-14T16:18:39.244Z,99962.75
2022-10-14T16:21:05.807Z,99970.28
2022-10-14T16:23:33.384Z,99968.41
2022-10-14T16:25:59.851Z,99965.22
2022-10-14T16:28:26.181Z,99961.47
2022-10-14T16:30:52.527Z,99959.78
2022-10-14T16:33:20.656Z,99957.25
2022-10-14T16:35:51.386Z,99945.25
2022-10-14T16:38:17.735Z,99943.72
2022-10-14T16:40:44.145Z,99942.13
2022-10-14T16:43:10.853Z,99942.31
2022-10-14T16:45:37.150Z,99934.59
2022-10-14T16:48:03.601Z,99941.31
2022-10-14T16:50:29.951Z,99933.34
2022-10-14T16:52:56.283Z,99933.81
2022-10-14T16:55:23.638Z,99931.06
2022-10-14T16:57:50.151Z,99932.31
2022-10-14T17:02:48.660Z,99934.25
2022-10-14T17:05:15.177Z,99935.13
2022-10-14T17:07:41.541Z,99927.09
2022-10-14T17:10:08.438Z,99929.41
2022-10-14T17:12:34.830Z,99928.59
2022-10-14T17:15:01.281Z,99926.66
2022-10-14T17:17:27.606Z,99929.41
2022-10-14T17:19:54.041Z,99916.91
2022-10-14T17:22:21.281Z,99921.69
2022-10-14T17:24:48.919Z,99925.53
2022-10-14T17:27:18.109Z,99919.16
2022-10-14T17:29:45.073Z,99928.66
2022-10-14T17:32:11.581Z,99914.53
2022-10-14T17:34:37.883Z,99921.16
2022-10-14T17:37:04.265Z,99909.75
2022-10-14T17:39:31.041Z,99912.50
2022-10-14T17:41:57.399Z,99913.03
2022-10-14T17:44:23.761Z,99911.34
2022-10-14T17:46:50.070Z,99913.63
2022-10-14T17:49:16.414Z,99910.41
2022-10-14T17:51:42.739Z,99909.56
2022-10-14T17:54:11.613Z,99904.78
2022-10-14T17:56:39.412Z,99906.41
2022-10-14T17:59:08.319Z,99897.09
2022-10-14T18:02:00.845Z,99905.44
2022-10-14T18:06:52.420Z,99903.16
2022-10-14T18:09:18.753Z,99902.09
2022-10-14T18:14:31.457Z,99913.03
2022-10-14T18:16:57.828Z,99907.22
2022-10-14T18:19:24.125Z,99911.41
2022-10-14T18:21:50.448Z,99907.69
2022-10-14T18:24:16.826Z,99903.81
2022-10-14T18:26:43.157Z,99906.91
2022-10-14T18:29:09.511Z,99900.66
2022-10-14T18:31:36.159Z,99897.69
2022-10-14T18:34:03.177Z,99894.72
2022-10-14T18:36:31.365Z,99893.25
2022-10-14T18:39:03.808Z,99883.00
2022-10-14T18:41:31.051Z,99884.94
2022-10-14T18:43:57.741Z,99882.22
2022-10-14T18:46:29.816Z,99880.88
2022-10-14T18:48:58.311Z,99873.34
2022-10-14T18:51:27.335Z,99883.59
2022-10-14T18:53:57.307Z,99890.41
2022-10-14T18:56:27.137Z,99874.81
2022-10-14T18:58:56.126Z,99877.88
2022-10-14T19:01:22.667Z,99878.53
2022-10-14T19:03:49.334Z,99880.94
2022-10-14T19:06:15.662Z,99879.19
2022-10-14T19:08:42.578Z,99874.66
2022-10-14T19:11:17.721Z,99871.75
2022-10-14T19:13:45.467Z,99865.50
2022-10-14T19:16:17.494Z,99874.34
2022-10-14T19:18:44.156Z,99881.19
2022-10-14T19:21:14.039Z,99874.03
2022-10-14T19:23:42.444Z,99879.94
2022-10-14T19:26:14.322Z,99870.63
2022-10-14T19:28:41.350Z,99865.19
2022-10-14T19:31:10.087Z,99869.50
2022-10-14T19:33:41.650Z,99865.97
2022-10-14T19:36:09.207Z,99864.69
2022-10-14T19:38:37.302Z,99859.91
2022-10-14T19:41:07.630Z,99857.66
2022-10-14T19:43:34.754Z,99862.63
2022-10-14T19:46:08.642Z,99845.59
2022-10-14T19:48:34.990Z,99845.25
2022-10-14T19:51:06.195Z,99840.63
2022-10-14T19:53:33.491Z,99826.50
2022-10-14T19:56:08.697Z,99832.63
2022-10-14T19:58:38.565Z,99839.66
2022-10-14T20:01:12.592Z,99837.41
2022-10-14T20:03:39.288Z,99838.09
2022-10-14T20:06:06.588Z,99846.88
2022-10-14T20:08:33.556Z,99835.28
2022-10-14T20:11:04.362Z,99838.34
2022-10-14T20:13:30.862Z,99844.94
2022-10-14T20:15:59.619Z,99831.47
2022-10-14T20:18:26.130Z,99834.22
2022-10-14T20:20:52.495Z,99839.66
2022-10-14T20:23:19.583Z,99826.38
2022-10-14T20:25:46.994Z,99830.22
2022-10-14T20:28:13.937Z,99829.44
2022-10-14T20:30:42.169Z,99821.53
2022-10-14T20:33:09.290Z,99824.09
2022-10-14T20:35:35.750Z,99812.81
2022-10-14T20:38:02.285Z,99821.59
2022-10-14T20:40:28.966Z,99822.63
2022-10-14T20:42:55.640Z,99820.44
2022-10-14T20:45:22.131Z,99818.63
2022-10-14T20:47:53.349Z,99825.84
2022-10-14T20:50:20.875Z,99821.75
2022-10-14T20:52:47.209Z,99825.72
2022-10-14T20:55:13.620Z,99821.16
2022-10-14T20:57:39.947Z,99821.84
2022-10-14T21:00:07.766Z,99817.56
2022-10-14T21:02:34.346Z,99814.59
2022-10-14T21:05:00.748Z,99813.06
2022-10-14T21:07:27.120Z,99809.19
2022-10-14T21:09:53.599Z,99816.19
2022-10-14T21:12:20.147Z,99820.16
2022-10-14T21:14:46.630Z,99828.09
2022-10-14T21:17:13.025Z,99837.53
2022-10-14T21:19:39.334Z,99833.97
2022-10-14T21:22:05.628Z,99825.06
2022-10-14T21:24:31.920Z,99831.56
2022-10-14T21:26:58.519Z,99830.75
2022-10-14T21:29:24.874Z,99813.59
2022-10-14T21:31:51.202Z,99816.13
2022-10-14T21:34:17.635Z,99828.88
2022-10-14T21:36:43.996Z,99822.66
2022-10-14T21:39:13.973Z,99818.44
2022-10-14T21:41:41.190Z,99828.22
2022-10-14T21:44:08.839Z,99833.22
2022-10-14T21:46:36.291Z,99824.16
2022-10-14T21:49:03.125Z,99818.09
2022-10-14T21:51:30.578Z,99808.69
2022-10-14T21:53:57.693Z,99806.94
2022-10-14T21:56:25.100Z,99818.84
2022-10-14T21:58:52.012Z,99815.19
2022-10-14T22:01:21.007Z,99809.41
2022-10-14T22:03:52.205Z,99816.19
2022-10-14T22:06:18.491Z,99820.19
2022-10-14T22:08:47.118Z,99821.00
2022-10-14T22:11:42.669Z,99819.31
2022-10-14T22:14:15.021Z,99816.78
2022-10-14T22:16:41.340Z,99820.97
2022-10-14T22:19:07.667Z,99829.81
2022-10-14T22:21:36.003Z,99825.63
2022-10-14T22:24:03.310Z,99827.22
2022-10-14T22:26:30.761Z,99822.53
2022-10-14T22:29:14.707Z,99841.94
2022-10-14T22:31:41.055Z,99841.34
2022-10-14T22:34:09.694Z,99832.09
2022-10-14T22:36:36.055Z,99834.47
2022-10-14T22:39:09.914Z,99832.69
2022-10-14T22:41:36.308Z,99824.38
2022-10-14T22:44:04.569Z,99818.66
2022-10-14T22:46:33.284Z,99818.22
2022-10-14T22:49:00.076Z,99815.09
2022-10-14T22:51:29.530Z,99819.50
2022-10-14T22:53:56.057Z,99812.47
2022-10-14T22:56:24.631Z,99811.53
2022-10-14T22:58:55.537Z,99805.78
2022-10-14T23:01:23.231Z,99806.72
2022-10-14T23:03:49.788Z,99810.59
2022-10-14T23:06:16.199Z,99803.72
2022-10-14T23:08:42.945Z,99814.69
2022-10-14T23:11:14.078Z,99811.03
2022-10-14T23:13:40.485Z,99806.25
2022-10-14T23:16:10.036Z,99804.84
2022-10-14T23:18:37.862Z,99808.72
2022-10-14T23:21:11.786Z,99814.22
2022-10-14T23:23:38.308Z,99805.06
2022-10-14T23:26:05.630Z,99811.16
2022-10-14T23:28:32.005Z,99803.66
2022-10-14T23:30:58.468Z,99807.84
2022-10-14T23:33:24.797Z,99802.13
2022-10-14T23:35:51.148Z,99807.44
2022-10-14T23:38:17.620Z,99796.38
2022-10-14T23:40:43.941Z,99789.84
2022-10-14T23:43:10.254Z,99798.13
2022-10-14T23:45:36.586Z,99796.84
2022-10-14T23:48:03.072Z,99799.41
2022-10-14T23:50:29.376Z,99793.50
2022-10-14T23:52:55.685Z,99800.22
2022-10-14T23:55:22.019Z,99798.47
2022-10-14T23:57:48.314Z,99797.50
